Time;durP1;ratioP1;P1;durP2;ratioP2;P2;SDS_P1;SDS_P2;PMS_P1;PMS_P2;Temp;Humidity;BMP_temperature;BMP_pressure;BME280_temperature;BME280_humidity;BME280_pressure;Samples;Min_cycle;Max_cycle;Signal;HPM_P1;HPM_P2
2021/04/14 00:02:03;;;;;;;19.33;8.10;;;;;;;;;;5094308;28;20486;-63
2021/04/14 00:04:49;;;;;;;15.40;6.85;;;;;;;;;;5094691;28;20121;-63
2021/04/14 00:07:34;;;;;;;9.90;5.72;;;;;;;;;;5093461;28;20040;-63
2021/04/14 00:10:21;;;;;;;11.65;5.88;;;;;;;;;;5094042;28;20153;-63
2021/04/14 00:13:07;;;;;;;11.63;6.50;;;;;;;;;;5094178;28;20040;-62
2021/04/14 00:15:53;;;;;;;11.95;6.97;;;;;;;;;;5093614;28;20050;-62
2021/04/14 00:18:38;;;;;;;10.55;5.82;;;;;;;;;;5094210;28;20052;-63
2021/04/14 00:21:24;;;;;;;11.80;5.88;;;;;;;;;;5093706;28;20051;-63
2021/04/14 00:24:13;;;;;;;10.55;7.05;;;;;;;;;;5078039;28;20504;-62
2021/04/14 00:26:58;;;;;;;15.90;8.52;;;;;;;;;;5093967;28;20132;-63
2021/04/14 00:29:43;;;;;;;13.80;8.23;;;;;;;;;;5093608;28;20062;-63
2021/04/14 00:32:29;;;;;;;12.60;8.98;;;;;;;;;;5093851;28;20044;-63
2021/04/14 00:35:15;;;;;;;19.90;10.88;;;;;;;;;;5093026;28;20042;-63
2021/04/14 00:38:00;;;;;;;16.60;9.23;;;;;;;;;;5093773;28;20402;-63
2021/04/14 00:40:49;;;;;;;13.68;7.20;;;;;;;;;;5093666;28;20052;-62
2021/04/14 00:43:35;;;;;;;15.93;9.70;;;;;;;;;;5093776;28;20089;-63
2021/04/14 00:46:20;;;;;;;14.38;7.82;;;;;;;;;;5092781;28;20047;-62
2021/04/14 00:49:06;;;;;;;11.38;7.95;;;;;;;;;;5092787;28;20502;-62
2021/04/14 00:51:52;;;;;;;18.40;7.95;;;;;;;;;;5093369;28;20044;-63
2021/04/14 00:54:37;;;;;;;13.02;8.25;;;;;;;;;;5093419;28;20052;-63
2021/04/14 00:57:23;;;;;;;14.15;9.30;;;;;;;;;;5093431;28;20048;-63
2021/04/14 01:00:13;;;;;;;22.45;9.93;;;;;;;;;;5077936;28;20044;-63
2021/04/14 01:02:58;;;;;;;15.50;9.13;;;;;;;;;;5093061;28;20118;-62
2021/04/14 01:05:44;;;;;;;22.80;13.43;;;;;;;;;;5092527;28;20405;-63
2021/04/14 01:08:29;;;;;;;21.17;11.15;;;;;;;;;;5093301;28;20048;-63
2021/04/14 01:11:15;;;;;;;20.65;11.93;;;;;;;;;;5092803;28;20044;-62
2021/04/14 01:14:00;;;;;;;21.25;12.77;;;;;;;;;;5078070;28;20123;-63
2021/04/14 01:16:45;;;;;;;27.60;14.95;;;;;;;;;;5092227;28;20040;-63
2021/04/14 01:19:30;;;;;;;27.30;13.98;;;;;;;;;;5092613;28;20048;-63
2021/04/14 01:22:16;;;;;;;29.85;15.63;;;;;;;;;;5093086;28;20458;-63
2021/04/14 01:25:01;;;;;;;22.60;14.98;;;;;;;;;;5092943;28;20043;-63
2021/04/14 01:27:47;;;;;;;26.35;16.25;;;;;;;;;;5091657;28;20044;-63
2021/04/14 01:30:32;;;;;;;26.55;15.63;;;;;;;;;;5092489;28;20068;-63
2021/04/14 01:33:18;;;;;;;35.13;19.17;;;;;;;;;;5092802;28;20436;-63
2021/04/14 01:36:04;;;;;;;32.97;18.17;;;;;;;;;;5092600;28;20036;-62
2021/04/14 01:38:50;;;;;;;27.90;18.13;;;;;;;;;;5092619;28;20499;-63
2021/04/14 01:41:35;;;;;;;25.45;14.45;;;;;;;;;;5092399;28;20075;-62
2021/04/14 01:44:20;;;;;;;22.95;15.30;;;;;;;;;;5092581;28;20506;-63
2021/04/14 01:47:06;;;;;;;22.70;13.02;;;;;;;;;;5091665;28;20043;-63
2021/04/14 01:49:51;;;;;;;23.05;14.35;;;;;;;;;;5092235;28;20134;-63
2021/04/14 01:52:37;;;;;;;26.00;16.30;;;;;;;;;;5092446;28;20055;-63
2021/04/14 01:55:22;;;;;;;26.23;15.95;;;;;;;;;;5092412;28;20086;-62
2021/04/14 01:58:08;;;;;;;22.85;14.25;;;;;;;;;;5091509;28;20122;-63
2021/04/14 02:00:58;;;;;;;23.40;14.15;;;;;;;;;;5085190;28;20051;-63
2021/04/14 02:03:44;;;;;;;24.83;14.45;;;;;;;;;;5072217;28;20048;-62
2021/04/14 02:06:29;;;;;;;24.55;12.38;;;;;;;;;;5072199;28;20064;-63
2021/04/14 02:09:15;;;;;;;20.25;14.18;;;;;;;;;;5088607;28;20052;-63
2021/04/14 02:12:00;;;;;;;23.13;15.73;;;;;;;;;;5092235;28;20044;-63
2021/04/14 02:14:48;;;;;;;18.13;12.23;;;;;;;;;;5092279;28;20048;-63
2021/04/14 02:17:33;;;;;;;22.75;13.07;;;;;;;;;;5089938;28;20062;-63
2021/04/14 02:20:19;;;;;;;18.20;11.02;;;;;;;;;;5071581;28;20511;-63
2021/04/14 02:23:14;;;;;;;19.42;11.85;;;;;;;;;;5071826;28;20448;-62
2021/04/14 02:26:12;;;;;;;19.83;12.85;;;;;;;;;;5071854;28;20592;-63
2021/04/14 02:28:57;;;;;;;18.02;11.93;;;;;;;;;;5080318;28;20051;-62
2021/04/14 02:31:43;;;;;;;21.65;13.05;;;;;;;;;;5075957;28;20036;-63
2021/04/14 02:34:28;;;;;;;20.98;13.18;;;;;;;;;;5090797;28;20040;-62
2021/04/14 02:37:21;;;;;;;21.65;12.57;;;;;;;;;;5091953;28;20052;-63
2021/04/14 02:40:13;;;;;;;23.70;13.70;;;;;;;;;;5091282;28;20492;-63
2021/04/14 02:42:58;;;;;;;28.67;15.10;;;;;;;;;;5075684;28;20118;-63
2021/04/14 02:45:44;;;;;;;26.25;14.45;;;;;;;;;;5075876;28;20048;-63
2021/04/14 02:48:29;;;;;;;20.67;10.90;;;;;;;;;;5075755;28;20052;-63
2021/04/14 02:51:35;;;;;;;19.38;11.93;;;;;;;;;;5048859;28;20045;-63
2021/04/14 02:54:20;;;;;;;19.23;11.75;;;;;;;;;;5075551;28;20499;-63
2021/04/14 02:57:25;;;;;;;24.55;13.45;;;;;;;;;;5060390;28;20487;-62
2021/04/14 03:00:11;;;;;;;28.38;15.27;;;;;;;;;;5085097;28;20173;-62
2021/04/14 03:02:56;;;;;;;31.05;16.33;;;;;;;;;;5095463;28;20067;-62
2021/04/14 03:05:41;;;;;;;29.25;15.75;;;;;;;;;;5095817;28;20137;-62
2021/04/14 03:08:27;;;;;;;24.38;14.98;;;;;;;;;;5095650;28;20048;-62
2021/04/14 03:11:32;;;;;;;23.15;13.30;;;;;;;;;;5072959;28;20459;-62
2021/04/14 03:14:17;;;;;;;19.85;12.48;;;;;;;;;;5075060;28;20067;-62
2021/04/14 03:17:03;;;;;;;23.23;12.90;;;;;;;;;;5075041;28;20037;-62
2021/04/14 03:19:48;;;;;;;24.83;12.35;;;;;;;;;;5075807;28;20044;-62
2021/04/14 03:22:34;;;;;;;24.20;12.52;;;;;;;;;;5095216;28;20054;-62
2021/04/14 03:25:20;;;;;;;16.00;10.25;;;;;;;;;;5095376;28;20185;-62
2021/04/14 03:28:05;;;;;;;17.88;11.52;;;;;;;;;;5095193;28;20040;-62
2021/04/14 03:30:51;;;;;;;22.42;13.70;;;;;;;;;;5093469;28;20038;-62
2021/04/14 03:33:36;;;;;;;33.28;19.55;;;;;;;;;;5095197;28;20048;-62
2021/04/14 03:36:21;;;;;;;25.80;15.52;;;;;;;;;;5095066;28;20040;-62
2021/04/14 03:39:27;;;;;;;30.80;16.98;;;;;;;;;;5078915;28;20048;-63
2021/04/14 03:42:13;;;;;;;26.70;16.45;;;;;;;;;;5094977;28;20052;-62
2021/04/14 03:45:00;;;;;;;20.77;13.80;;;;;;;;;;5094942;28;20421;-62
2021/04/14 03:48:06;;;;;;;21.75;12.10;;;;;;;;;;5079806;28;20047;-62
2021/04/14 03:50:51;;;;;;;17.95;12.57;;;;;;;;;;5093367;28;20044;-62
2021/04/14 03:53:40;;;;;;;19.88;12.05;;;;;;;;;;5094688;28;20044;-62
2021/04/14 03:56:25;;;;;;;24.00;13.40;;;;;;;;;;5094681;28;20040;-62
2021/04/14 03:59:12;;;;;;;22.35;13.52;;;;;;;;;;5093948;28;20055;-62
2021/04/14 04:01:57;;;;;;;22.83;13.48;;;;;;;;;;5133583;22;20044;-64
2021/04/14 04:04:42;;;;;;;26.30;14.65;;;;;;;;;;5096912;28;20066;-64
2021/04/14 04:07:28;;;;;;;25.40;15.02;;;;;;;;;;5114944;28;20047;-64
2021/04/14 04:10:13;;;;;;;15.20;10.20;;;;;;;;;;5112904;28;20051;-65
2021/04/14 04:12:59;;;;;;;23.08;11.55;;;;;;;;;;5114611;28;20497;-64
2021/04/14 04:15:44;;;;;;;19.58;12.43;;;;;;;;;;5114680;28;20052;-65
2021/04/14 04:18:30;;;;;;;20.48;12.05;;;;;;;;;;5115192;28;20110;-64
2021/04/14 04:21:15;;;;;;;17.27;10.90;;;;;;;;;;5113171;28;20416;-64
2021/04/14 04:24:00;;;;;;;20.42;9.45;;;;;;;;;;5114652;28;20118;-64
2021/04/14 04:26:46;;;;;;;17.45;11.13;;;;;;;;;;5114639;28;20044;-64
2021/04/14 04:29:31;;;;;;;21.17;10.32;;;;;;;;;;5115095;28;20051;-65
2021/04/14 04:32:17;;;;;;;17.15;9.52;;;;;;;;;;5112945;28;20088;-65
2021/04/14 04:35:03;;;;;;;15.30;8.90;;;;;;;;;;5114776;28;20051;-64
2021/04/14 04:37:48;;;;;;;16.20;10.48;;;;;;;;;;5115113;28;20055;-64
2021/04/14 04:40:53;;;;;;;16.27;10.63;;;;;;;;;;5096985;28;20386;-64
2021/04/14 04:43:41;;;;;;;18.42;11.10;;;;;;;;;;5113957;28;20044;-64
2021/04/14 04:46:30;;;;;;;20.08;10.27;;;;;;;;;;5114147;28;20040;-65
2021/04/14 04:49:15;;;;;;;24.10;11.15;;;;;;;;;;5113945;28;20498;-65
2021/04/14 04:52:01;;;;;;;20.80;11.15;;;;;;;;;;5097679;28;20045;-65
2021/04/14 04:54:46;;;;;;;26.23;12.65;;;;;;;;;;5073246;28;20044;-65
2021/04/14 04:57:32;;;;;;;25.33;10.98;;;;;;;;;;5073189;28;20041;-64
2021/04/14 05:00:17;;;;;;;16.67;10.25;;;;;;;;;;5072772;28;20086;-64
2021/04/14 05:03:03;;;;;;;17.95;11.63;;;;;;;;;;5096918;28;20110;-64
2021/04/14 05:05:49;;;;;;;24.10;13.15;;;;;;;;;;5098447;28;20435;-64
2021/04/14 05:08:35;;;;;;;24.30;13.77;;;;;;;;;;5098355;28;20057;-64
2021/04/14 05:11:20;;;;;;;24.05;12.63;;;;;;;;;;5092924;28;20520;-64
2021/04/14 05:14:06;;;;;;;20.90;12.73;;;;;;;;;;5110930;28;20123;-64
2021/04/14 05:16:51;;;;;;;20.70;12.13;;;;;;;;;;5114005;28;20555;-64
2021/04/14 05:19:36;;;;;;;20.90;11.10;;;;;;;;;;5113417;28;20126;-65
2021/04/14 05:22:24;;;;;;;20.77;11.82;;;;;;;;;;5111841;28;20497;-64
2021/04/14 05:25:09;;;;;;;22.27;11.93;;;;;;;;;;5113504;28;20445;-64
2021/04/14 05:27:58;;;;;;;21.30;12.07;;;;;;;;;;5113592;28;20048;-64
2021/04/14 05:30:43;;;;;;;21.77;13.52;;;;;;;;;;5112983;28;20040;-65
2021/04/14 05:33:29;;;;;;;21.27;13.38;;;;;;;;;;5110695;28;20114;-64
2021/04/14 05:36:14;;;;;;;23.88;13.48;;;;;;;;;;5114209;28;20035;-64
2021/04/14 05:38:59;;;;;;;20.92;12.70;;;;;;;;;;5116333;28;20039;-64
2021/04/14 05:41:45;;;;;;;24.10;14.57;;;;;;;;;;5114625;28;20051;-64
2021/04/14 05:44:31;;;;;;;21.80;12.85;;;;;;;;;;5111549;28;20485;-64
2021/04/14 05:47:16;;;;;;;22.63;13.98;;;;;;;;;;5113034;28;20040;-64
2021/04/14 05:50:02;;;;;;;29.33;15.23;;;;;;;;;;5112701;28;20505;-64
2021/04/14 05:52:47;;;;;;;21.77;13.02;;;;;;;;;;5115114;28;20104;-63
2021/04/14 05:55:32;;;;;;;18.30;12.35;;;;;;;;;;5114312;28;20040;-64
2021/04/14 05:58:18;;;;;;;23.02;13.60;;;;;;;;;;5112287;28;20059;-64
2021/04/14 06:01:04;;;;;;;25.58;15.73;;;;;;;;;;5100696;28;20044;-65
2021/04/14 06:03:50;;;;;;;22.15;13.50;;;;;;;;;;5101732;28;20118;-64
2021/04/14 06:06:35;;;;;;;21.63;14.23;;;;;;;;;;5115756;28;20437;-64
2021/04/14 06:09:20;;;;;;;23.83;12.43;;;;;;;;;;5116319;28;20051;-64
2021/04/14 06:12:06;;;;;;;14.00;9.93;;;;;;;;;;5114446;28;20031;-64
2021/04/14 06:14:51;;;;;;;21.98;15.27;;;;;;;;;;5118578;28;20043;-64
2021/04/14 06:17:36;;;;;;;27.38;15.90;;;;;;;;;;5115874;28;20554;-64
2021/04/14 06:20:22;;;;;;;25.27;17.60;;;;;;;;;;5112273;28;20173;-64
2021/04/14 06:23:09;;;;;;;26.15;16.90;;;;;;;;;;5108051;28;20491;-64
2021/04/14 06:26:16;;;;;;;29.40;17.63;;;;;;;;;;5112170;28;20044;-64
2021/04/14 06:28:59;;;;;;;30.67;16.63;;;;;;;;;;5112344;28;20044;-64
2021/04/14 06:31:44;;;;;;;26.92;17.40;;;;;;;;;;5110131;28;20044;-64
2021/04/14 06:34:30;;;;;;;24.17;16.50;;;;;;;;;;5112670;28;20119;-64
2021/04/14 06:37:15;;;;;;;21.00;14.32;;;;;;;;;;5112447;28;20040;-64
2021/04/14 06:43:40;;;;;;;6.72;5.32;;;;;;;;;;5080325;28;20678;-64
2021/04/14 06:46:47;;;;;;;5.63;3.53;;;;;;;;;;5065837;28;20142;-64
2021/04/14 06:49:36;;;;;;;4.63;2.25;;;;;;;;;;5076816;28;20097;-64
2021/04/14 06:52:23;;;;;;;6.18;3.33;;;;;;;;;;5091832;28;20387;-64
2021/04/14 06:55:13;;;;;;;4.00;3.22;;;;;;;;;;5055265;28;20589;-71
2021/04/14 06:57:58;;;;;;;4.80;2.35;;;;;;;;;;5042477;28;20037;-71
2021/04/14 07:00:44;;;;;;;4.10;2.17;;;;;;;;;;5066554;28;20054;-72
2021/04/14 07:03:31;;;;;;;3.40;1.83;;;;;;;;;;5096639;28;20043;-72
2021/04/14 07:06:18;;;;;;;6.07;2.40;;;;;;;;;;5096961;28;20066;-69
2021/04/14 07:09:35;;;;;;;7.25;1.58;;;;;;;;;;5098540;28;20047;-71
2021/04/14 07:12:21;;;;;;;5.45;2.55;;;;;;;;;;5076793;28;20040;-70
2021/04/14 07:15:06;;;;;;;4.95;1.67;;;;;;;;;;5076379;28;20079;-70
2021/04/14 07:18:10;;;;;;;1.33;1.10;;;;;;;;;;5076417;28;20044;-70
2021/04/14 07:21:01;;;;;;;7.07;1.92;;;;;;;;;;5092767;28;20044;-70
2021/04/14 07:23:56;;;;;;;1.95;1.70;;;;;;;;;;5110480;28;20051;-70
2021/04/14 07:26:41;;;;;;;6.22;1.80;;;;;;;;;;5097722;28;20040;-70
2021/04/14 07:29:27;;;;;;;3.38;1.83;;;;;;;;;;5115354;28;20044;-70
2021/04/14 07:32:40;;;;;;;5.38;1.92;;;;;;;;;;5074157;28;20048;-70
2021/04/14 07:35:27;;;;;;;1.95;1.38;;;;;;;;;;5079919;28;20129;-71
2021/04/14 07:38:18;;;;;;;3.65;1.98;;;;;;;;;;5079787;28;20044;-71
2021/04/14 07:41:04;;;;;;;3.17;1.70;;;;;;;;;;5094681;28;20064;-71
2021/04/14 07:44:01;;;;;;;5.85;1.85;;;;;;;;;;5113449;28;20067;-71
2021/04/14 07:46:48;;;;;;;4.80;1.98;;;;;;;;;;5115254;28;20044;-70
2021/04/14 07:49:34;;;;;;;3.28;1.63;;;;;;;;;;5114931;28;20035;-71
2021/04/14 07:52:24;;;;;;;6.28;1.50;;;;;;;;;;5112885;28;20043;-71
2021/04/14 07:55:23;;;;;;;3.55;1.23;;;;;;;;;;5099820;28;20062;-71
2021/04/14 07:58:09;;;;;;;4.05;1.90;;;;;;;;;;5099723;28;20067;-71
2021/04/14 08:00:54;;;;;;;6.50;2.30;;;;;;;;;;5114622;28;20044;-70
2021/04/14 08:03:40;;;;;;;3.55;1.20;;;;;;;;;;5110158;28;20565;-70
2021/04/14 08:06:26;;;;;;;3.85;1.08;;;;;;;;;;5114346;28;20401;-74
2021/04/14 08:09:12;;;;;;;8.23;1.48;;;;;;;;;;5116736;28;20039;-64
2021/04/14 08:11:57;;;;;;;10.85;1.73;;;;;;;;;;5114747;28;20480;-65
2021/04/14 08:14:43;;;;;;;5.63;1.88;;;;;;;;;;5061069;28;20040;-65
2021/04/14 08:17:29;;;;;;;6.20;1.50;;;;;;;;;;5074109;28;20044;-65
2021/04/14 08:20:17;;;;;;;6.43;1.10;;;;;;;;;;5073677;28;20134;-65
2021/04/14 08:23:09;;;;;;;4.97;1.20;;;;;;;;;;5060101;28;20522;-65
2021/04/14 08:25:55;;;;;;;1.80;1.00;;;;;;;;;;5093475;28;20056;-64
2021/04/14 08:28:43;;;;;;;2.55;0.82;;;;;;;;;;5093995;28;20490;-65
2021/04/14 08:31:35;;;;;;;11.10;1.58;;;;;;;;;;5093741;28;20056;-64
2021/04/14 08:34:30;;;;;;;3.57;1.00;;;;;;;;;;5101200;28;20050;-65
2021/04/14 08:37:19;;;;;;;5.07;1.20;;;;;;;;;;5099243;28;20071;-65
2021/04/14 08:40:05;;;;;;;4.13;1.50;;;;;;;;;;5113906;28;20097;-65
2021/04/14 08:42:50;;;;;;;6.47;1.00;;;;;;;;;;5114111;28;20082;-65
2021/04/14 08:45:37;;;;;;;4.57;0.63;;;;;;;;;;5097069;28;20512;-65
2021/04/14 08:48:26;;;;;;;1.80;0.50;;;;;;;;;;5114151;28;20433;-65
2021/04/14 08:51:12;;;;;;;2.92;0.90;;;;;;;;;;5113637;28;20056;-65
2021/04/14 08:53:58;;;;;;;5.03;0.95;;;;;;;;;;5097435;28;20039;-65
2021/04/14 08:56:44;;;;;;;4.18;0.68;;;;;;;;;;5073276;28;20487;-65
2021/04/14 08:59:29;;;;;;;5.28;0.85;;;;;;;;;;5072997;28;20051;-65
2021/04/14 09:02:21;;;;;;;5.97;0.85;;;;;;;;;;5084776;28;20056;-64
2021/04/14 09:05:07;;;;;;;3.05;0.93;;;;;;;;;;5098394;28;20047;-65
2021/04/14 09:07:54;;;;;;;6.60;1.83;;;;;;;;;;5098416;28;20044;-65
2021/04/14 09:10:54;;;;;;;4.53;0.90;;;;;;;;;;5098241;28;20486;-64
2021/04/14 09:13:45;;;;;;;8.73;1.42;;;;;;;;;;5071808;28;20051;-65
2021/04/14 09:16:50;;;;;;;2.80;0.75;;;;;;;;;;5072880;28;20499;-65
2021/04/14 09:19:39;;;;;;;4.50;1.00;;;;;;;;;;5072830;28;20115;-65
2021/04/14 09:22:28;;;;;;;1.75;0.70;;;;;;;;;;5066769;28;20062;-65
2021/04/14 09:25:22;;;;;;;5.35;0.70;;;;;;;;;;5077737;28;20048;-65
2021/04/14 09:28:08;;;;;;;5.28;1.23;;;;;;;;;;5077718;28;20073;-65
2021/04/14 09:30:54;;;;;;;3.25;0.93;;;;;;;;;;5077434;28;20044;-65
2021/04/14 09:33:45;;;;;;;2.10;0.70;;;;;;;;;;5106789;28;20390;-65
2021/04/14 09:36:31;;;;;;;2.90;0.77;;;;;;;;;;5113629;28;20048;-65
2021/04/14 09:39:36;;;;;;;2.88;0.63;;;;;;;;;;5113020;28;20414;-65
2021/04/14 09:42:25;;;;;;;2.88;0.82;;;;;;;;;;5095771;28;20120;-65
2021/04/14 09:45:16;;;;;;;3.75;0.73;;;;;;;;;;5112982;28;20044;-65
2021/04/14 09:48:02;;;;;;;2.85;1.35;;;;;;;;;;5112756;28;20043;-65
2021/04/14 09:50:47;;;;;;;3.15;1.23;;;;;;;;;;5112388;28;20044;-65
2021/04/14 09:53:33;;;;;;;3.35;1.13;;;;;;;;;;5110947;28;20044;-65
2021/04/14 09:56:20;;;;;;;5.15;1.13;;;;;;;;;;5098573;28;20067;-65
2021/04/14 09:59:11;;;;;;;3.35;1.10;;;;;;;;;;5114370;28;20043;-64
2021/04/14 10:02:08;;;;;;;4.30;0.98;;;;;;;;;;5097895;28;20142;-65
2021/04/14 10:04:54;;;;;;;7.25;1.10;;;;;;;;;;5078738;28;20052;-65
2021/04/14 10:07:40;;;;;;;8.00;2.28;;;;;;;;;;5077128;28;20486;-65
2021/04/14 10:10:25;;;;;;;4.50;0.82;;;;;;;;;;5076962;28;20097;-64
2021/04/14 10:13:11;;;;;;;2.90;0.47;;;;;;;;;;5091761;28;20048;-64
2021/04/14 10:15:57;;;;;;;2.55;0.80;;;;;;;;;;5111021;28;20417;-65
2021/04/14 10:18:42;;;;;;;1.90;0.50;;;;;;;;;;5111014;28;20513;-65
2021/04/14 10:21:28;;;;;;;4.57;0.85;;;;;;;;;;5112194;28;20044;-65
2021/04/14 10:24:14;;;;;;;2.72;0.57;;;;;;;;;;5095462;28;20048;-65
2021/04/14 10:26:59;;;;;;;2.60;0.90;;;;;;;;;;5095810;28;20485;-65
2021/04/14 10:29:44;;;;;;;1.00;0.40;;;;;;;;;;5096793;28;20552;-64
2021/04/14 10:32:29;;;;;;;2.83;0.50;;;;;;;;;;5096990;28;20481;-64
2021/04/14 10:35:15;;;;;;;3.45;0.77;;;;;;;;;;5095257;28;20494;-64
2021/04/14 10:38:01;;;;;;;3.78;0.57;;;;;;;;;;5111085;28;20036;-65
2021/04/14 10:40:46;;;;;;;4.57;0.43;;;;;;;;;;5112060;28;20043;-64
2021/04/14 10:43:31;;;;;;;2.25;0.43;;;;;;;;;;5112275;28;20052;-64
2021/04/14 10:46:20;;;;;;;3.08;0.40;;;;;;;;;;5109770;28;20089;-64
2021/04/14 10:49:07;;;;;;;3.08;0.60;;;;;;;;;;5096577;28;20051;-78
2021/04/14 10:51:53;;;;;;;1.98;0.52;;;;;;;;;;5097391;28;20040;-78
2021/04/14 10:54:41;;;;;;;2.42;0.38;;;;;;;;;;5097720;28;20039;-77
2021/04/14 10:57:26;;;;;;;3.15;0.40;;;;;;;;;;5055974;28;20040;-78
2021/04/14 11:00:12;;;;;;;3.63;0.40;;;;;;;;;;5056949;28;20037;-78
2021/04/14 11:02:57;;;;;;;1.98;0.60;;;;;;;;;;5061498;28;20048;-79
2021/04/14 11:05:49;;;;;;;4.50;1.00;;;;;;;;;;5075479;28;20044;-78
2021/04/14 11:08:35;;;;;;;2.00;0.50;;;;;;;;;;5099552;28;20047;-77
2021/04/14 11:11:20;;;;;;;2.60;0.50;;;;;;;;;;5117114;28;20040;-77
2021/04/14 11:14:06;;;;;;;2.53;0.50;;;;;;;;;;5116688;28;20047;-78
2021/04/14 11:16:52;;;;;;;3.28;0.63;;;;;;;;;;5089227;28;20040;-78
2021/04/14 11:19:43;;;;;;;1.02;0.57;;;;;;;;;;5094756;28;20040;-78
2021/04/14 11:22:28;;;;;;;1.15;0.20;;;;;;;;;;5067202;28;20044;-78
2021/04/14 11:25:27;;;;;;;4.45;0.30;;;;;;;;;;5080744;28;20122;-79
2021/04/14 11:28:13;;;;;;;2.33;0.40;;;;;;;;;;5078564;28;20036;-79
2021/04/14 11:31:05;;;;;;;2.20;0.30;;;;;;;;;;5080800;28;20040;-79
2021/04/14 11:33:50;;;;;;;1.13;0.60;;;;;;;;;;5096191;28;20443;-79
2021/04/14 11:36:35;;;;;;;0.57;0.35;;;;;;;;;;5079924;28;20067;-64
2021/04/14 11:39:21;;;;;;;0.60;0.30;;;;;;;;;;5096138;28;20052;-64
2021/04/14 11:42:16;;;;;;;1.63;0.30;;;;;;;;;;5096209;28;20517;-64
2021/04/14 11:45:02;;;;;;;3.70;0.73;;;;;;;;;;5096458;28;20501;-65
2021/04/14 11:47:47;;;;;;;1.15;0.20;;;;;;;;;;5101938;28;20055;-64
2021/04/14 11:50:33;;;;;;;0.93;0.30;;;;;;;;;;5114829;28;20046;-65
2021/04/14 11:53:19;;;;;;;2.42;0.47;;;;;;;;;;5116077;28;20040;-65
2021/04/14 11:56:06;;;;;;;1.55;0.20;;;;;;;;;;5100799;28;20048;-65
2021/04/14 11:58:51;;;;;;;1.17;0.50;;;;;;;;;;5113940;28;20043;-64
2021/04/14 12:01:36;;;;;;;3.72;0.40;;;;;;;;;;5114735;28;20040;-65
2021/04/14 12:04:21;;;;;;;1.45;0.30;;;;;;;;;;5099965;28;20093;-65
2021/04/14 12:07:07;;;;;;;3.00;0.28;;;;;;;;;;5113355;28;20435;-65
2021/04/14 12:09:52;;;;;;;1.13;0.30;;;;;;;;;;5112641;28;20159;-65
2021/04/14 12:12:37;;;;;;;1.85;0.30;;;;;;;;;;5114629;28;20494;-65
2021/04/14 12:15:23;;;;;;;3.78;0.50;;;;;;;;;;5115028;28;20054;-65
2021/04/14 12:18:08;;;;;;;2.30;0.50;;;;;;;;;;5113311;28;20035;-65
2021/04/14 12:20:53;;;;;;;3.50;0.50;;;;;;;;;;5072250;28;20037;-65
2021/04/14 12:23:39;;;;;;;2.67;0.60;;;;;;;;;;5073852;28;20419;-64
2021/04/14 12:26:25;;;;;;;1.75;0.60;;;;;;;;;;5073814;28;20062;-65
2021/04/14 12:29:10;;;;;;;2.70;0.63;;;;;;;;;;5078846;28;20421;-65
2021/04/14 12:31:56;;;;;;;3.05;0.47;;;;;;;;;;5091260;28;20040;-64
2021/04/14 12:34:41;;;;;;;1.00;0.40;;;;;;;;;;5093508;28;20064;-65
2021/04/14 12:37:26;;;;;;;1.58;0.50;;;;;;;;;;5091889;28;20119;-64
2021/04/14 12:40:12;;;;;;;1.98;0.30;;;;;;;;;;5091441;28;20044;-64
2021/04/14 12:42:57;;;;;;;4.07;0.80;;;;;;;;;;5110994;28;20178;-64
2021/04/14 12:45:49;;;;;;;3.00;0.40;;;;;;;;;;5114217;28;20055;-64
2021/04/14 12:48:37;;;;;;;3.22;0.93;;;;;;;;;;5114053;28;20124;-65
2021/04/14 12:51:34;;;;;;;1.20;0.50;;;;;;;;;;5111923;28;20036;-64
2021/04/14 12:54:35;;;;;;;3.53;0.52;;;;;;;;;;5112436;28;20120;-65
2021/04/14 12:57:22;;;;;;;1.75;0.57;;;;;;;;;;5112429;28;20039;-64
2021/04/14 13:00:08;;;;;;;1.40;0.52;;;;;;;;;;5096955;28;20048;-65
2021/04/14 13:03:07;;;;;;;2.25;0.90;;;;;;;;;;5110932;28;20062;-63
2021/04/14 13:05:53;;;;;;;2.03;0.40;;;;;;;;;;5098913;28;20478;-64
2021/04/14 13:08:39;;;;;;;1.63;0.30;;;;;;;;;;5098233;28;20494;-64
2021/04/14 13:11:31;;;;;;;1.98;0.50;;;;;;;;;;5099331;28;20047;-64
2021/04/14 13:14:17;;;;;;;3.23;0.67;;;;;;;;;;5074533;28;20045;-64
2021/04/14 13:17:12;;;;;;;3.05;0.80;;;;;;;;;;5073946;28;20051;-64
2021/04/14 13:19:57;;;;;;;2.25;0.50;;;;;;;;;;5057598;28;20511;-65
2021/04/14 13:22:46;;;;;;;2.20;0.38;;;;;;;;;;5063264;28;20094;-65
2021/04/14 13:25:36;;;;;;;3.33;0.60;;;;;;;;;;5077203;28;20127;-65
2021/04/14 13:28:24;;;;;;;2.45;0.50;;;;;;;;;;5077724;28;20059;-65
2021/04/14 13:31:15;;;;;;;2.13;0.60;;;;;;;;;;5078250;28;20124;-65
2021/04/14 13:34:07;;;;;;;2.72;0.50;;;;;;;;;;5077450;28;20477;-65
2021/04/14 13:37:03;;;;;;;2.45;0.50;;;;;;;;;;5077774;28;20056;-65
2021/04/14 13:40:08;;;;;;;4.45;0.77;;;;;;;;;;5077476;28;20048;-65
2021/04/14 13:42:55;;;;;;;2.08;0.45;;;;;;;;;;5091796;28;20126;-65
2021/04/14 13:45:40;;;;;;;2.38;0.35;;;;;;;;;;5077506;28;20047;-65
2021/04/14 13:48:29;;;;;;;1.95;0.43;;;;;;;;;;5092744;28;20051;-65
2021/04/14 13:51:18;;;;;;;6.20;0.50;;;;;;;;;;5077103;28;20656;-65
2021/04/14 13:54:03;;;;;;;1.50;0.30;;;;;;;;;;5083234;28;20036;-65
2021/04/14 13:56:50;;;;;;;2.17;0.52;;;;;;;;;;5096274;28;20482;-65
2021/04/14 13:59:46;;;;;;;1.88;0.40;;;;;;;;;;5113443;28;20055;-65
2021/04/14 14:02:42;;;;;;;1.60;0.40;;;;;;;;;;5113451;28;20035;-65
2021/04/14 14:05:30;;;;;;;2.95;0.70;;;;;;;;;;5111140;28;20097;-65
2021/04/14 14:08:33;;;;;;;4.85;0.65;;;;;;;;;;5097722;28;20047;-65
2021/04/14 14:11:19;;;;;;;2.37;0.40;;;;;;;;;;5113029;28;20048;-65
2021/04/14 14:14:05;;;;;;;3.63;0.57;;;;;;;;;;5095254;28;20485;-65
2021/04/14 14:16:53;;;;;;;2.78;0.47;;;;;;;;;;5095942;28;20715;-65
2021/04/14 14:19:41;;;;;;;2.13;0.40;;;;;;;;;;5112393;28;20128;-65
2021/04/14 14:22:27;;;;;;;10.55;1.35;;;;;;;;;;5097223;28;20040;-65
2021/04/14 14:25:12;;;;;;;7.57;0.85;;;;;;;;;;5110699;28;20039;-65
2021/04/14 14:27:58;;;;;;;1.77;0.30;;;;;;;;;;5111064;28;20040;-65
2021/04/14 14:30:44;;;;;;;2.33;0.60;;;;;;;;;;5112223;28;20122;-65
2021/04/14 14:33:37;;;;;;;4.50;0.77;;;;;;;;;;5112009;28;20514;-65
2021/04/14 14:36:24;;;;;;;1.88;0.40;;;;;;;;;;5113225;28;20043;-65
2021/04/14 14:39:09;;;;;;;1.90;0.38;;;;;;;;;;5117543;28;20051;-65
2021/04/14 14:41:56;;;;;;;2.33;0.40;;;;;;;;;;5117796;28;20055;-65
2021/04/14 14:45:01;;;;;;;3.40;0.43;;;;;;;;;;5117323;28;20047;-65
2021/04/14 14:47:48;;;;;;;2.25;0.50;;;;;;;;;;5059630;28;20048;-65
2021/04/14 14:50:35;;;;;;;1.63;0.40;;;;;;;;;;5076349;28;20419;-65
2021/04/14 14:53:20;;;;;;;2.40;0.43;;;;;;;;;;5076384;28;20044;-65
2021/04/14 14:56:09;;;;;;;3.03;0.35;;;;;;;;;;5086624;28;20059;-65
2021/04/14 14:58:54;;;;;;;3.58;0.55;;;;;;;;;;5067693;28;20394;-65
2021/04/14 15:01:40;;;;;;;2.72;0.38;;;;;;;;;;5077212;28;20383;-64
2021/04/14 15:04:25;;;;;;;2.30;0.40;;;;;;;;;;5095261;28;20134;-65
2021/04/14 15:07:11;;;;;;;3.03;0.47;;;;;;;;;;5106363;28;20044;-65
2021/04/14 15:09:56;;;;;;;4.25;0.60;;;;;;;;;;5114465;28;20624;-65
2021/04/14 15:12:42;;;;;;;3.58;0.40;;;;;;;;;;5115341;28;20047;-65
2021/04/14 15:15:27;;;;;;;2.83;0.45;;;;;;;;;;5116261;28;20048;-65
2021/04/14 15:18:12;;;;;;;2.65;0.68;;;;;;;;;;5113991;28;20386;-65
2021/04/14 15:20:59;;;;;;;3.55;0.50;;;;;;;;;;5115543;28;20044;-65
2021/04/14 15:23:44;;;;;;;3.08;1.25;;;;;;;;;;5115648;28;20082;-65
2021/04/14 15:26:29;;;;;;;3.33;0.70;;;;;;;;;;5115441;28;20048;-65
2021/04/14 15:29:15;;;;;;;5.78;0.50;;;;;;;;;;5074453;28;20127;-65
2021/04/14 15:32:00;;;;;;;5.60;0.95;;;;;;;;;;5074818;28;20041;-65
2021/04/14 15:34:45;;;;;;;1.23;0.45;;;;;;;;;;5074838;28;20040;-65
2021/04/14 15:37:31;;;;;;;4.50;1.00;;;;;;;;;;5065321;28;20040;-65
2021/04/14 15:40:17;;;;;;;2.83;0.50;;;;;;;;;;5099904;28;20047;-65
2021/04/14 15:43:03;;;;;;;2.78;0.57;;;;;;;;;;5115372;28;20051;-65
2021/04/14 15:45:48;;;;;;;4.68;0.82;;;;;;;;;;5115376;28;20051;-65
2021/04/14 15:48:33;;;;;;;1.98;0.73;;;;;;;;;;5112944;28;20047;-65
2021/04/14 15:51:19;;;;;;;3.75;0.68;;;;;;;;;;5114949;28;20467;-65
2021/04/14 15:54:08;;;;;;;0.60;0.50;;;;;;;;;;5099650;28;20039;-65
2021/04/14 15:56:54;;;;;;;1.95;0.50;;;;;;;;;;5115017;28;20047;-65
2021/04/14 15:59:39;;;;;;;5.35;0.47;;;;;;;;;;5081080;28;20079;-65
2021/04/14 16:02:32;;;;;;;5.32;0.65;;;;;;;;;;5093990;28;20051;-65
2021/04/14 16:05:21;;;;;;;2.72;0.40;;;;;;;;;;5135846;22;20089;-64
2021/04/14 16:08:06;;;;;;;4.25;0.60;;;;;;;;;;5094001;28;20048;-63
2021/04/14 16:10:52;;;;;;;2.20;0.50;;;;;;;;;;5073497;28;20040;-64
2021/04/14 16:13:37;;;;;;;2.80;0.40;;;;;;;;;;5072889;28;20124;-64
2021/04/14 16:16:23;;;;;;;1.05;0.40;;;;;;;;;;5074692;28;20490;-64
2021/04/14 16:19:08;;;;;;;1.33;0.17;;;;;;;;;;5088417;28;20113;-64
2021/04/14 16:21:55;;;;;;;1.55;0.38;;;;;;;;;;5093609;28;20070;-64
2021/04/14 16:24:40;;;;;;;2.35;0.30;;;;;;;;;;5071831;28;20053;-64
2021/04/14 16:27:25;;;;;;;2.40;0.68;;;;;;;;;;5073836;28;20490;-64
2021/04/14 16:30:11;;;;;;;4.13;0.40;;;;;;;;;;5083916;28;20040;-64
2021/04/14 16:32:56;;;;;;;1.60;0.50;;;;;;;;;;5093886;28;20486;-64
2021/04/14 16:35:42;;;;;;;3.13;0.40;;;;;;;;;;5093894;28;20090;-64
2021/04/14 16:38:27;;;;;;;1.73;0.40;;;;;;;;;;5093760;28;20509;-64